createdAt,value
2023-09-09T00:00:43.854Z,23.11
2023-09-09T00:03:10.810Z,23.13
2023-09-09T00:05:37.586Z,23.05
2023-09-09T00:08:04.776Z,23.02
2023-09-09T00:10:31.569Z,23.06
2023-09-09T00:12:58.819Z,23.05
2023-09-09T00:15:25.630Z,23.05
2023-09-09T00:17:52.594Z,23.04
2023-09-09T00:20:19.429Z,23.10
2023-09-09T00:22:46.183Z,23.10
2023-09-09T00:25:12.940Z,23.10
2023-09-09T00:27:40.188Z,22.95
2023-09-09T00:30:08.067Z,22.93
2023-09-09T00:32:34.892Z,22.92
2023-09-09T00:35:01.642Z,22.89
2023-09-09T00:37:28.386Z,22.99
2023-09-09T00:39:55.099Z,22.89
2023-09-09T00:42:21.863Z,22.88
2023-09-09T00:44:48.595Z,22.84
2023-09-09T00:47:15.475Z,22.77
2023-09-09T00:49:42.269Z,22.62
2023-09-09T00:52:09.564Z,22.59
2023-09-09T00:54:36.724Z,22.63
2023-09-09T00:57:05.770Z,22.81
2023-09-09T00:59:33.357Z,22.70
2023-09-09T01:02:00.659Z,22.65
2023-09-09T01:04:27.510Z,22.67
2023-09-09T01:06:54.539Z,22.55
2023-09-09T01:09:21.347Z,22.51
2023-09-09T01:11:48.060Z,22.40
2023-09-09T01:14:15.027Z,22.39
2023-09-09T01:16:42.822Z,22.37
2023-09-09T01:19:09.933Z,22.30
2023-09-09T01:21:37.405Z,22.30
2023-09-09T01:24:04.429Z,22.38
2023-09-09T01:26:31.317Z,22.36
2023-09-09T01:28:58.183Z,22.39
2023-09-09T01:31:25.003Z,22.31
2023-09-09T01:33:56.709Z,22.21
2023-09-09T01:36:23.488Z,22.10
2023-09-09T01:38:50.160Z,22.11
2023-09-09T01:41:16.900Z,22.13
2023-09-09T01:43:43.779Z,22.04
2023-09-09T01:46:10.601Z,21.95
2023-09-09T01:48:38.280Z,21.91
2023-09-09T01:51:05.049Z,21.86
2023-09-09T01:53:31.753Z,21.90
2023-09-09T01:55:59.795Z,21.80
2023-09-09T01:58:26.578Z,21.77
2023-09-09T02:00:53.268Z,21.78
2023-09-09T02:03:20.410Z,21.84
2023-09-09T02:05:47.243Z,21.87
2023-09-09T02:08:13.964Z,21.79
2023-09-09T02:10:41.368Z,21.74
2023-09-09T02:13:08.064Z,21.88
2023-09-09T02:15:34.894Z,21.82
2023-09-09T02:18:01.686Z,21.85
2023-09-09T02:20:28.435Z,21.82
2023-09-09T02:22:55.209Z,21.81
2023-09-09T02:25:21.925Z,21.73
2023-09-09T02:27:48.779Z,21.68
2023-09-09T02:30:15.531Z,21.65
2023-09-09T02:32:45.356Z,21.61
2023-09-09T02:35:12.274Z,21.55
2023-09-09T02:37:39.135Z,21.57
2023-09-09T02:40:06.399Z,21.68
2023-09-09T02:42:33.249Z,21.74
2023-09-09T02:45:00.175Z,21.82
2023-09-09T02:47:26.938Z,21.90
2023-09-09T02:49:54.978Z,21.93
2023-09-09T02:52:21.957Z,21.91
2023-09-09T02:54:48.828Z,21.82
2023-09-09T02:57:15.617Z,21.71
2023-09-09T02:59:42.408Z,21.68
2023-09-09T03:02:09.737Z,21.63
2023-09-09T03:04:36.555Z,21.64
2023-09-09T03:07:03.665Z,21.54
2023-09-09T03:09:31.394Z,21.55
2023-09-09T03:11:58.184Z,21.49
2023-09-09T03:14:25.325Z,21.54
2023-09-09T03:16:52.304Z,21.56
2023-09-09T03:19:19.081Z,21.60
2023-09-09T03:21:46.531Z,21.61
2023-09-09T03:24:13.282Z,21.59
2023-09-09T03:26:40.129Z,21.63
2023-09-09T03:29:06.858Z,21.68
2023-09-09T03:31:35.169Z,21.66
2023-09-09T03:34:02.009Z,21.65
2023-09-09T03:36:29.947Z,21.64
2023-09-09T03:38:57.005Z,21.70
2023-09-09T03:41:23.813Z,21.74
2023-09-09T03:43:50.634Z,21.76
2023-09-09T03:46:17.516Z,21.81
2023-09-09T03:48:44.363Z,21.71
2023-09-09T03:51:11.116Z,21.63
2023-09-09T03:53:38.096Z,21.56
2023-09-09T03:56:05.300Z,21.54
2023-09-09T03:58:32.224Z,21.47
2023-09-09T04:01:10.257Z,21.54
2023-09-09T04:03:38.754Z,21.51
2023-09-09T04:06:08.056Z,21.54
2023-09-09T04:08:36.013Z,21.52
2023-09-09T04:11:03.358Z,21.59
2023-09-09T04:13:30.439Z,21.55
2023-09-09T04:15:58.358Z,21.54
2023-09-09T04:18:42.228Z,21.53
2023-09-09T04:21:11.397Z,21.56
2023-09-09T04:23:38.562Z,21.64
2023-09-09T04:26:05.636Z,21.56
2023-09-09T04:28:32.495Z,21.52
2023-09-09T04:30:59.394Z,21.41
2023-09-09T04:33:26.168Z,21.30
2023-09-09T04:35:52.967Z,21.30
2023-09-09T04:38:21.040Z,21.28
2023-09-09T04:40:47.744Z,21.21
2023-09-09T04:43:14.529Z,21.20
2023-09-09T04:45:41.290Z,21.15
2023-09-09T04:48:08.148Z,21.14
2023-09-09T04:50:35.097Z,21.15
2023-09-09T04:53:03.896Z,21.17
2023-09-09T04:55:30.840Z,21.19
2023-09-09T04:57:57.645Z,21.20
2023-09-09T05:00:24.374Z,21.29
2023-09-09T05:02:51.117Z,21.29
2023-09-09T05:05:17.984Z,21.28
2023-09-09T05:07:44.757Z,21.21
2023-09-09T05:10:11.532Z,21.32
2023-09-09T05:12:38.375Z,21.33
2023-09-09T05:15:08.200Z,21.27
2023-09-09T05:17:35.242Z,21.34
2023-09-09T05:20:02.102Z,21.29
2023-09-09T05:22:28.835Z,21.25
2023-09-09T05:24:55.524Z,21.17
2023-09-09T05:27:22.298Z,21.13
2023-09-09T05:29:49.113Z,21.06
2023-09-09T05:32:17.526Z,21.07
2023-09-09T05:34:44.455Z,21.01
2023-09-09T05:37:11.246Z,21.01
2023-09-09T05:39:38.011Z,20.97
2023-09-09T05:42:07.788Z,21.00
2023-09-09T05:44:40.459Z,20.99
2023-09-09T05:47:08.466Z,21.08
2023-09-09T05:49:39.276Z,21.07
2023-09-09T05:52:08.026Z,21.11
2023-09-09T05:54:34.920Z,21.06
2023-09-09T05:57:01.976Z,21.08
2023-09-09T05:59:29.043Z,21.05
2023-09-09T06:01:55.809Z,21.13
2023-09-09T06:04:22.801Z,21.19
2023-09-09T06:06:49.912Z,21.25
2023-09-09T06:09:16.852Z,21.25
2023-09-09T06:11:43.690Z,21.21
2023-09-09T06:14:10.523Z,21.21
2023-09-09T06:16:37.347Z,21.23
2023-09-09T06:19:04.158Z,21.32
2023-09-09T06:21:30.912Z,21.32
2023-09-09T06:23:57.692Z,21.36
2023-09-09T06:26:24.629Z,21.35
2023-09-09T06:28:51.403Z,21.37
2023-09-09T06:31:18.187Z,21.38
2023-09-09T06:33:45.643Z,21.40
2023-09-09T06:36:12.722Z,21.42
2023-09-09T06:38:39.823Z,21.48
2023-09-09T06:41:06.609Z,21.56
2023-09-09T06:43:33.349Z,21.55
2023-09-09T06:46:03.130Z,21.61
2023-09-09T06:48:31.527Z,21.59
2023-09-09T06:51:01.148Z,21.67
2023-09-09T06:53:28.267Z,21.70
2023-09-09T06:55:55.011Z,21.74
2023-09-09T06:58:21.820Z,21.76
2023-09-09T07:00:52.664Z,21.75
2023-09-09T07:03:22.468Z,21.74
2023-09-09T07:05:49.683Z,21.85
2023-09-09T07:08:16.485Z,21.90
2023-09-09T07:10:53.157Z,21.94
2023-09-09T07:13:23.749Z,21.99
2023-09-09T07:15:54.717Z,22.04
2023-09-09T07:18:22.562Z,22.07
2023-09-09T07:20:50.401Z,22.16
2023-09-09T07:23:18.515Z,22.23
2023-09-09T07:25:46.260Z,22.18
2023-09-09T07:28:13.100Z,22.23
2023-09-09T07:30:40.020Z,22.29
2023-09-09T07:33:06.971Z,22.29
2023-09-09T07:35:36.655Z,22.30
2023-09-09T07:38:07.872Z,22.40
2023-09-09T07:40:35.516Z,22.46
2023-09-09T07:43:02.847Z,22.51
2023-09-09T07:45:30.005Z,22.56
2023-09-09T07:47:57.568Z,22.60
2023-09-09T07:50:24.520Z,22.64
2023-09-09T07:52:51.241Z,22.68
2023-09-09T07:55:18.062Z,22.74
2023-09-09T07:57:44.831Z,22.75
2023-09-09T08:00:12.266Z,22.75
2023-09-09T08:02:39.310Z,22.81
2023-09-09T08:05:08.019Z,22.86
2023-09-09T08:07:34.839Z,22.89
2023-09-09T08:10:01.641Z,22.95
2023-09-09T08:12:28.356Z,22.98
2023-09-09T08:15:05.949Z,23.05
2023-09-09T08:17:33.083Z,23.05
2023-09-09T08:19:59.951Z,23.11
2023-09-09T08:22:27.941Z,23.16
2023-09-09T08:24:54.758Z,23.23
2023-09-09T08:27:21.622Z,23.28
2023-09-09T08:29:48.430Z,23.34
2023-09-09T08:32:15.267Z,23.34
2023-09-09T08:34:43.295Z,23.39
2023-09-09T08:37:10.379Z,23.46
2023-09-09T08:39:37.185Z,23.54
2023-09-09T08:42:21.836Z,23.59
2023-09-09T08:45:02.671Z,23.62
2023-09-09T08:47:36.880Z,23.70
2023-09-09T08:50:05.526Z,23.77
2023-09-09T08:52:32.362Z,23.87
2023-09-09T08:54:59.206Z,23.89
2023-09-09T08:57:27.282Z,23.91
2023-09-09T08:59:54.632Z,23.91
2023-09-09T09:02:22.320Z,23.96
2023-09-09T09:04:49.420Z,23.97
2023-09-09T09:07:17.055Z,24.06
2023-09-09T09:09:43.805Z,24.10
2023-09-09T09:12:12.680Z,24.15
2023-09-09T09:14:47.198Z,24.21
2023-09-09T09:17:16.389Z,24.23
2023-09-09T09:19:43.671Z,24.31
2023-09-09T09:22:10.702Z,24.38
2023-09-09T09:24:43.164Z,24.36
2023-09-09T09:27:13.873Z,24.43
2023-09-09T09:29:42.344Z,24.51
2023-09-09T09:32:11.795Z,24.56
2023-09-09T09:34:38.693Z,24.62
2023-09-09T09:37:16.468Z,24.73
2023-09-09T09:39:58.426Z,24.82
2023-09-09T09:42:25.321Z,24.87
2023-09-09T09:45:08.915Z,24.94
2023-09-09T09:47:47.908Z,25.00
2023-09-09T09:50:29.996Z,25.17
2023-09-09T09:53:03.868Z,25.19
2023-09-09T09:55:32.279Z,25.21
2023-09-09T09:58:00.955Z,25.22
2023-09-09T10:00:28.627Z,25.29
2023-09-09T10:02:57.394Z,25.35
2023-09-09T10:05:27.098Z,25.39
2023-09-09T10:07:59.780Z,25.45
2023-09-09T10:10:27.180Z,25.55
2023-09-09T10:13:07.659Z,25.66
2023-09-09T10:15:35.640Z,25.75
2023-09-09T10:18:03.892Z,25.88
2023-09-09T10:20:31.185Z,26.06
2023-09-09T10:23:01.402Z,26.26
2023-09-09T10:25:28.603Z,26.51
2023-09-09T10:27:55.451Z,26.82
2023-09-09T10:30:22.894Z,27.01
2023-09-09T10:32:50.311Z,27.25
2023-09-09T10:35:19.009Z,27.54
2023-09-09T10:37:47.956Z,27.70
2023-09-09T10:40:15.709Z,27.94
2023-09-09T10:42:43.360Z,28.11
2023-09-09T10:45:30.186Z,28.23
2023-09-09T10:48:08.067Z,28.34
2023-09-09T10:50:46.180Z,28.30
2023-09-09T10:53:33.658Z,28.59
2023-09-09T10:56:19.027Z,28.77
2023-09-09T10:58:45.863Z,28.89
2023-09-09T11:01:26.259Z,29.10
2023-09-09T11:03:53.831Z,29.25
2023-09-09T11:06:21.606Z,29.47
2023-09-09T11:08:49.306Z,29.49
2023-09-09T11:11:25.044Z,29.41
2023-09-09T11:14:01.880Z,29.57
2023-09-09T11:16:35.542Z,29.64
2023-09-09T11:19:08.353Z,29.64
2023-09-09T11:21:36.738Z,29.61
2023-09-09T11:24:03.890Z,29.61
2023-09-09T11:26:31.331Z,29.62
2023-09-09T11:28:58.747Z,29.57
2023-09-09T11:31:28.351Z,29.64
2023-09-09T11:33:58.815Z,29.72
2023-09-09T11:36:25.837Z,29.59
2023-09-09T11:38:54.761Z,29.47
2023-09-09T11:41:23.119Z,29.40
2023-09-09T11:44:10.148Z,29.42
2023-09-09T11:46:46.392Z,29.40
2023-09-09T11:49:14.242Z,29.56
2023-09-09T11:51:41.278Z,29.64
2023-09-09T11:54:09.369Z,29.67
2023-09-09T11:56:36.533Z,29.55
2023-09-09T11:59:10.673Z,29.52
2023-09-09T12:01:43.992Z,29.50
2023-09-09T12:04:24.098Z,29.59
2023-09-09T12:06:55.295Z,29.74
2023-09-09T12:09:22.410Z,29.60
2023-09-09T12:11:49.331Z,29.47
2023-09-09T12:14:16.482Z,29.51
2023-09-09T12:16:43.890Z,29.60
2023-09-09T12:19:15.041Z,29.59
2023-09-09T12:21:50.435Z,29.58
2023-09-09T12:24:17.402Z,29.67
2023-09-09T12:26:57.496Z,29.46
2023-09-09T12:29:24.270Z,29.44
2023-09-09T12:31:56.462Z,29.54
2023-09-09T12:34:25.770Z,29.64
2023-09-09T12:36:58.012Z,29.69
2023-09-09T12:39:28.657Z,29.74
2023-09-09T12:42:06.515Z,29.78
2023-09-09T12:44:53.825Z,29.86
2023-09-09T12:47:22.165Z,29.82
2023-09-09T12:49:51.770Z,29.86
2023-09-09T12:52:18.667Z,29.77
2023-09-09T12:54:45.497Z,29.68
2023-09-09T12:57:12.286Z,29.73
2023-09-09T12:59:39.086Z,29.79
2023-09-09T13:02:06.422Z,29.82
2023-09-09T13:04:33.232Z,29.89
2023-09-09T13:07:00.108Z,29.92
2023-09-09T13:09:27.014Z,29.97
2023-09-09T13:11:53.850Z,29.90
2023-09-09T13:14:25.981Z,29.77
2023-09-09T13:16:53.487Z,29.75
2023-09-09T13:19:21.355Z,29.75
2023-09-09T13:21:49.570Z,29.74
2023-09-09T13:24:16.362Z,29.83
2023-09-09T13:26:43.093Z,29.89
2023-09-09T13:29:09.831Z,29.92
2023-09-09T13:31:38.638Z,29.99
2023-09-09T13:34:08.127Z,29.98
2023-09-09T13:36:34.844Z,29.98
2023-09-09T13:39:01.578Z,30.06
2023-09-09T13:41:30.172Z,30.16
2023-09-09T13:43:57.115Z,30.07
2023-09-09T13:46:25.848Z,30.00
2023-09-09T13:48:52.690Z,30.08
2023-09-09T13:51:20.022Z,30.04
2023-09-09T13:53:46.883Z,29.99
2023-09-09T13:56:14.539Z,30.07
2023-09-09T13:58:41.316Z,30.15
2023-09-09T14:01:08.211Z,30.11
2023-09-09T14:03:35.119Z,30.03
2023-09-09T14:06:05.032Z,30.04
2023-09-09T14:08:36.948Z,29.97
2023-09-09T14:11:03.871Z,29.99
2023-09-09T14:13:30.693Z,30.00
2023-09-09T14:16:02.998Z,29.98
2023-09-09T14:18:29.862Z,30.02
2023-09-09T14:20:56.720Z,30.16
2023-09-09T14:23:23.480Z,30.13
2023-09-09T14:25:50.216Z,30.19
2023-09-09T14:28:17.063Z,30.25
2023-09-09T14:30:47.377Z,30.25
2023-09-09T14:33:16.318Z,30.27
2023-09-09T14:35:43.364Z,30.30
2023-09-09T14:38:10.306Z,30.36
2023-09-09T14:40:39.555Z,30.28
2023-09-09T14:43:06.922Z,30.19
2023-09-09T14:45:33.716Z,30.19
2023-09-09T14:48:00.517Z,30.23
2023-09-09T14:50:28.015Z,30.24
2023-09-09T14:52:54.886Z,30.29
2023-09-09T14:55:21.602Z,30.31
2023-09-09T14:57:48.370Z,30.33
2023-09-09T15:00:15.502Z,30.42
2023-09-09T15:02:42.347Z,30.53
2023-09-09T15:05:11.861Z,30.70
2023-09-09T15:07:39.354Z,30.73
2023-09-09T15:10:06.650Z,30.61
2023-09-09T15:12:33.442Z,30.63
2023-09-09T15:15:01.571Z,30.65
2023-09-09T15:17:32.869Z,30.69
2023-09-09T15:20:07.437Z,30.81
2023-09-09T15:22:34.407Z,30.88
2023-09-09T15:25:01.160Z,30.84
2023-09-09T15:27:27.921Z,30.84
2023-09-09T15:29:54.609Z,30.73
2023-09-09T15:32:21.528Z,30.78
2023-09-09T15:34:48.464Z,30.81
2023-09-09T15:37:15.924Z,30.59
2023-09-09T15:39:45.230Z,30.57
2023-09-09T15:42:12.070Z,30.61
2023-09-09T15:44:38.778Z,30.57
2023-09-09T15:47:05.827Z,30.55
2023-09-09T15:49:32.625Z,30.56
2023-09-09T15:51:59.353Z,30.50
2023-09-09T15:54:26.118Z,30.39
2023-09-09T15:56:52.822Z,30.36
2023-09-09T15:59:19.578Z,30.34
2023-09-09T16:01:46.391Z,30.25
2023-09-09T16:04:13.276Z,30.09
2023-09-09T16:06:40.176Z,30.02
2023-09-09T16:09:06.919Z,30.02
2023-09-09T16:11:33.633Z,29.90
2023-09-09T16:14:00.398Z,29.85
2023-09-09T16:16:27.152Z,29.82
2023-09-09T16:18:53.956Z,29.79
2023-09-09T16:21:32.874Z,29.68
2023-09-09T16:24:00.432Z,29.62
2023-09-09T16:26:27.305Z,29.51
2023-09-09T16:28:54.122Z,29.42
2023-09-09T16:31:21.016Z,29.42
2023-09-09T16:33:47.858Z,29.35
2023-09-09T16:36:14.581Z,29.31
2023-09-09T16:38:41.621Z,29.30
2023-09-09T16:41:08.536Z,29.24
2023-09-09T16:43:40.530Z,29.16
2023-09-09T16:46:07.406Z,29.14
2023-09-09T16:48:34.320Z,29.17
2023-09-09T16:51:01.092Z,29.10
2023-09-09T16:53:27.925Z,29.04
2023-09-09T16:55:54.715Z,29.10
2023-09-09T16:58:21.573Z,29.23
2023-09-09T17:00:50.203Z,29.23
2023-09-09T17:03:17.426Z,29.27
2023-09-09T17:05:47.785Z,29.24
2023-09-09T17:08:14.634Z,28.99
2023-09-09T17:10:43.053Z,28.85
2023-09-09T17:13:12.226Z,28.69
2023-09-09T17:15:42.323Z,28.59
2023-09-09T17:18:11.707Z,28.52
2023-09-09T17:20:38.588Z,28.44
2023-09-09T17:23:05.365Z,28.35
2023-09-09T17:25:32.374Z,28.29
2023-09-09T17:28:01.519Z,28.19
2023-09-09T17:30:29.251Z,28.13
2023-09-09T17:32:57.301Z,28.10
2023-09-09T17:35:26.316Z,28.05
2023-09-09T17:37:53.557Z,27.99
2023-09-09T17:40:26.003Z,27.94
2023-09-09T17:43:01.475Z,27.90
2023-09-09T17:45:32.491Z,27.84
2023-09-09T17:48:07.381Z,27.84
2023-09-09T17:50:34.335Z,27.77
2023-09-09T17:53:08.952Z,27.71
2023-09-09T17:55:37.859Z,27.68
2023-09-09T17:58:07.316Z,27.61
2023-09-09T18:00:37.486Z,27.58
2023-09-09T18:03:04.642Z,27.55
2023-09-09T18:05:36.797Z,27.44
2023-09-09T18:08:04.431Z,27.40
2023-09-09T18:10:31.295Z,27.39
2023-09-09T18:12:58.177Z,27.34
2023-09-09T18:15:24.922Z,27.29
2023-09-09T18:17:51.838Z,27.26
2023-09-09T18:20:18.962Z,27.15
2023-09-09T18:22:45.845Z,27.08
2023-09-09T18:25:12.670Z,27.04
2023-09-09T18:27:39.452Z,26.99
2023-09-09T18:30:09.318Z,26.95
2023-09-09T18:32:36.467Z,26.92
2023-09-09T18:35:04.209Z,26.84
2023-09-09T18:37:32.182Z,26.86
2023-09-09T18:39:59.073Z,26.78
2023-09-09T18:42:26.413Z,26.74
2023-09-09T18:44:53.129Z,26.71
2023-09-09T18:47:19.904Z,26.70
2023-09-09T18:49:46.670Z,26.62
2023-09-09T18:52:13.609Z,26.58
2023-09-09T18:54:40.421Z,26.53
2023-09-09T18:57:10.086Z,26.52
2023-09-09T18:59:36.811Z,26.50
2023-09-09T19:02:04.395Z,26.38
2023-09-09T19:04:31.796Z,26.24
2023-09-09T19:06:58.719Z,26.23
2023-09-09T19:09:25.464Z,26.15
2023-09-09T19:11:54.901Z,26.12
2023-09-09T19:14:21.714Z,26.09
2023-09-09T19:16:48.480Z,26.10
2023-09-09T19:19:15.264Z,26.03
2023-09-09T19:21:42.234Z,26.03
2023-09-09T19:24:09.225Z,26.03
2023-09-09T19:26:36.346Z,25.96
2023-09-09T19:29:03.085Z,25.95
2023-09-09T19:31:29.899Z,25.83
2023-09-09T19:33:56.643Z,25.75
2023-09-09T19:36:23.373Z,25.71
2023-09-09T19:38:50.235Z,25.73
2023-09-09T19:41:16.966Z,25.69
2023-09-09T19:43:43.712Z,25.68
2023-09-09T19:46:10.831Z,25.68
2023-09-09T19:48:37.762Z,25.72
2023-09-09T19:51:04.739Z,25.70
2023-09-09T19:53:31.536Z,25.61
2023-09-09T19:55:58.680Z,25.60
2023-09-09T19:58:25.633Z,25.55
2023-09-09T20:00:52.501Z,25.56
2023-09-09T20:03:19.280Z,25.50
2023-09-09T20:05:50.377Z,25.46
2023-09-09T20:08:17.105Z,25.42
2023-09-09T20:10:45.651Z,25.37
2023-09-09T20:13:12.374Z,25.36
2023-09-09T20:15:42.438Z,25.24
2023-09-09T20:18:09.719Z,25.19
2023-09-09T20:20:39.835Z,25.12
2023-09-09T20:23:06.549Z,25.09
2023-09-09T20:25:33.608Z,25.05
2023-09-09T20:28:00.361Z,25.00
2023-09-09T20:30:27.342Z,24.95
2023-09-09T20:32:54.078Z,24.88
2023-09-09T20:35:34.084Z,24.87
2023-09-09T20:38:01.741Z,24.85
2023-09-09T20:40:28.906Z,24.89
2023-09-09T20:43:03.495Z,24.84
2023-09-09T20:45:30.823Z,24.80
2023-09-09T20:47:57.756Z,24.73
2023-09-09T20:50:26.463Z,24.70
2023-09-09T20:52:54.527Z,24.65
2023-09-09T20:55:24.046Z,24.63
2023-09-09T20:57:51.257Z,24.63
2023-09-09T21:00:19.662Z,24.55
2023-09-09T21:02:48.210Z,24.57
2023-09-09T21:05:16.123Z,24.61
2023-09-09T21:07:43.573Z,24.57
2023-09-09T21:10:11.426Z,24.45
2023-09-09T21:12:39.054Z,24.36
2023-09-09T21:15:06.435Z,24.37
2023-09-09T21:17:34.294Z,24.42
2023-09-09T21:20:04.095Z,24.41
2023-09-09T21:22:31.758Z,24.31
2023-09-09T21:25:02.035Z,24.22
2023-09-09T21:27:29.684Z,24.24
2023-09-09T21:29:56.709Z,24.20
2023-09-09T21:32:24.022Z,24.14
2023-09-09T21:34:53.685Z,24.13
2023-09-09T21:37:21.341Z,24.04
2023-09-09T21:39:48.803Z,23.99
2023-09-09T21:42:15.804Z,23.97
2023-09-09T21:44:44.788Z,24.02
2023-09-09T21:47:11.617Z,24.04
2023-09-09T21:49:38.541Z,24.05
2023-09-09T21:52:06.422Z,24.08
2023-09-09T21:54:33.110Z,23.95
2023-09-09T21:56:59.864Z,23.84
2023-09-09T21:59:26.626Z,23.83
2023-09-09T22:01:53.409Z,23.84
2023-09-09T22:04:20.178Z,23.82
2023-09-09T22:06:47.291Z,23.76
2023-09-09T22:09:14.018Z,23.83
2023-09-09T22:11:40.805Z,23.82
2023-09-09T22:14:07.855Z,23.83
2023-09-09T22:16:34.701Z,23.80
2023-09-09T22:19:01.684Z,23.82
2023-09-09T22:21:28.472Z,23.80
2023-09-09T22:23:56.031Z,23.76
2023-09-09T22:26:30.034Z,23.69
2023-09-09T22:28:57.524Z,23.67
2023-09-09T22:31:28.821Z,23.60
2023-09-09T22:33:55.706Z,23.58
2023-09-09T22:36:22.453Z,23.60
2023-09-09T22:38:51.522Z,23.56
2023-09-09T22:41:18.689Z,23.51
2023-09-09T22:43:45.427Z,23.50
2023-09-09T22:46:12.329Z,23.52
2023-09-09T22:48:39.255Z,23.52
2023-09-09T22:51:07.405Z,23.47
2023-09-09T22:53:34.557Z,23.49
2023-09-09T22:56:02.369Z,23.55
2023-09-09T22:58:29.416Z,23.54
2023-09-09T23:00:59.145Z,23.55
2023-09-09T23:03:26.393Z,23.47
2023-09-09T23:05:53.446Z,23.47
2023-09-09T23:08:20.262Z,23.43
2023-09-09T23:10:47.142Z,23.43
2023-09-09T23:13:14.325Z,23.29
2023-09-09T23:15:41.336Z,23.25
2023-09-09T23:18:08.236Z,23.23
2023-09-09T23:20:35.273Z,23.10
2023-09-09T23:23:02.332Z,23.02
2023-09-09T23:25:29.305Z,23.06
2023-09-09T23:27:56.514Z,23.10
2023-09-09T23:30:23.288Z,23.13
2023-09-09T23:32:50.198Z,23.23
2023-09-09T23:35:17.865Z,23.25
2023-09-09T23:37:45.089Z,23.18
2023-09-09T23:40:12.667Z,23.09
2023-09-09T23:42:39.557Z,23.04
2023-09-09T23:45:07.349Z,22.99
2023-09-09T23:47:34.099Z,23.03
2023-09-09T23:50:00.976Z,23.06
2023-09-09T23:52:27.730Z,23.14
2023-09-09T23:54:54.564Z,23.12
2023-09-09T23:57:21.285Z,23.09
2023-09-09T23:59:48.010Z,23.13
